Dhaka, Bangladesh
Current Conditions -  °F | °C
As of 10:20 PM on Wednesday 26 Nov 2014 (Local Time) from VGHS Reporting Station
Haze Haze  
Wind Chill: 70°   Ceiling: Unl
Heat Index: 70°   Visibility: 2.1mi
Dew Point: 59°   Wind: 0mph
Humidity: 68%   Direction: NA
Pressure: 29.83"   Gusts: NA
Location:  23.7°N, 90.39°E
Report Text: VGHS 261620Z 00000KT 3500 HZ SCT015 21/15 Q1010 NOSIG
Loading
Personal Weather Stations






























Interactive Weather Map New forecast layout! Learn more

10-Day Weather Forecast

Advertisements
Track Severe Weather on mobile